Time;durP1;ratioP1;P1;durP2;ratioP2;P2;SDS_P1;SDS_P2;PMS_P1;PMS_P2;Temp;Humidity;BMP_temperature;BMP_pressure;BME280_temperature;BME280_humidity;BME280_pressure;Samples;Min_cycle;Max_cycle;Signal;HPM_P1;HPM_P2
2023/03/04 00:01:51;;;;;;;11.88;6.82;;;;;;;;;;5109734;28;20619;-74
2023/03/04 00:04:22;;;;;;;11.40;7.53;;;;;;;;;;5108803;28;20047;-73
2023/03/04 00:06:52;;;;;;;14.35;6.18;;;;;;;;;;5108940;28;20039;-73
2023/03/04 00:09:23;;;;;;;14.25;7.30;;;;;;;;;;5108666;28;20058;-73
2023/03/04 00:11:54;;;;;;;13.38;7.57;;;;;;;;;;5106563;28;20048;-73
2023/03/04 00:14:24;;;;;;;12.45;7.55;;;;;;;;;;5109002;28;20510;-73
2023/03/04 00:16:58;;;;;;;12.43;7.35;;;;;;;;;;5108406;28;20047;-73
2023/03/04 00:19:28;;;;;;;13.25;9.50;;;;;;;;;;5109003;28;20482;-74
2023/03/04 00:21:58;;;;;;;12.07;8.63;;;;;;;;;;5108378;28;20043;-73
2023/03/04 00:24:29;;;;;;;16.92;8.57;;;;;;;;;;5108731;28;20518;-73
2023/03/04 00:26:59;;;;;;;10.55;7.97;;;;;;;;;;5107301;28;20059;-73
2023/03/04 00:29:29;;;;;;;15.52;7.10;;;;;;;;;;5108310;28;20062;-74
2023/03/04 00:31:59;;;;;;;14.13;7.75;;;;;;;;;;5100420;28;20055;-74
2023/03/04 00:34:30;;;;;;;11.73;8.18;;;;;;;;;;5107311;28;20051;-74
2023/03/04 00:37:02;;;;;;;17.08;8.85;;;;;;;;;;5108330;28;20046;-73
2023/03/04 00:39:33;;;;;;;16.75;8.68;;;;;;;;;;5100882;28;20048;-72
2023/03/04 00:42:03;;;;;;;12.13;7.75;;;;;;;;;;5088879;28;20052;-73
2023/03/04 00:44:35;;;;;;;10.65;7.18;;;;;;;;;;5108702;28;20505;-74
2023/03/04 00:47:06;;;;;;;12.82;7.35;;;;;;;;;;5106905;28;20573;-72
2023/03/04 00:49:38;;;;;;;13.77;7.03;;;;;;;;;;5105766;28;20051;-74
2023/03/04 00:52:09;;;;;;;12.18;7.20;;;;;;;;;;5089500;28;20083;-73
2023/03/04 00:54:41;;;;;;;13.43;7.60;;;;;;;;;;5095002;28;20098;-75
2023/03/04 00:57:12;;;;;;;14.07;7.50;;;;;;;;;;5106028;28;20051;-74
2023/03/04 00:59:43;;;;;;;15.20;9.15;;;;;;;;;;5107491;28;20051;-75
2023/03/04 01:02:13;;;;;;;12.05;9.20;;;;;;;;;;5107618;28;20039;-74
2023/03/04 01:04:44;;;;;;;15.77;9.80;;;;;;;;;;5107397;28;20058;-74
2023/03/04 01:07:14;;;;;;;12.40;8.85;;;;;;;;;;5113822;27;20039;-74
2023/03/04 01:09:45;;;;;;;10.10;7.60;;;;;;;;;;5125678;27;20047;-75
2023/03/04 01:12:15;;;;;;;20.30;7.63;;;;;;;;;;5126681;27;20054;-74
2023/03/04 01:14:46;;;;;;;14.15;8.43;;;;;;;;;;5128061;27;20046;-76
2023/03/04 01:17:17;;;;;;;16.20;8.60;;;;;;;;;;5127991;27;20046;-75
2023/03/04 01:19:48;;;;;;;17.90;9.00;;;;;;;;;;5125743;27;20424;-74
2023/03/04 01:22:18;;;;;;;20.27;9.23;;;;;;;;;;5126261;27;20066;-74
2023/03/04 01:24:49;;;;;;;16.00;9.02;;;;;;;;;;5128332;27;20054;-74
2023/03/04 01:27:20;;;;;;;16.52;9.75;;;;;;;;;;5126153;27;20062;-74
2023/03/04 01:29:54;;;;;;;17.33;9.50;;;;;;;;;;5126378;27;20057;-74
2023/03/04 01:32:24;;;;;;;14.75;10.35;;;;;;;;;;5127770;27;20047;-74
2023/03/04 01:34:55;;;;;;;17.70;9.38;;;;;;;;;;5127297;27;20501;-74
2023/03/04 01:37:28;;;;;;;16.58;9.85;;;;;;;;;;5124659;27;21137;-75
2023/03/04 01:39:58;;;;;;;13.40;10.07;;;;;;;;;;5127434;27;20062;-73
2023/03/04 01:42:33;;;;;;;15.43;9.57;;;;;;;;;;5127349;27;20050;-74
2023/03/04 01:45:05;;;;;;;16.17;10.48;;;;;;;;;;5127801;27;20058;-74
2023/03/04 01:47:37;;;;;;;15.82;9.07;;;;;;;;;;5125585;27;20421;-76
2023/03/04 01:50:26;;;;;;;12.65;8.95;;;;;;;;;;5128073;27;20055;-75
2023/03/04 01:52:56;;;;;;;15.30;8.55;;;;;;;;;;5125860;27;20528;-75
2023/03/04 01:55:30;;;;;;;15.27;8.55;;;;;;;;;;5120007;28;20047;-74
2023/03/04 01:58:01;;;;;;;12.57;7.80;;;;;;;;;;5086948;28;20054;-75
2023/03/04 02:00:34;;;;;;;17.40;8.73;;;;;;;;;;5086920;28;20494;-74
2023/03/04 02:03:11;;;;;;;9.75;7.28;;;;;;;;;;5110516;28;20524;-73
2023/03/04 02:05:45;;;;;;;12.90;7.07;;;;;;;;;;5112727;28;20054;-73
2023/03/04 02:08:18;;;;;;;14.70;6.68;;;;;;;;;;5118201;27;20517;-73
2023/03/04 02:10:50;;;;;;;16.00;6.95;;;;;;;;;;5120648;27;20055;-75
2023/03/04 02:13:22;;;;;;;11.10;6.85;;;;;;;;;;5118406;27;20047;-75
2023/03/04 02:15:53;;;;;;;10.52;7.63;;;;;;;;;;5122437;27;20050;-74
2023/03/04 02:18:24;;;;;;;10.05;6.85;;;;;;;;;;5118421;27;20517;-75
2023/03/04 02:21:07;;;;;;;12.38;7.65;;;;;;;;;;5110839;28;20062;-75
2023/03/04 02:24:01;;;;;;;10.15;5.97;;;;;;;;;;5110631;28;20043;-75
2023/03/04 02:26:38;;;;;;;15.07;6.10;;;;;;;;;;5109124;28;20048;-75
2023/03/04 02:29:14;;;;;;;8.15;5.55;;;;;;;;;;5108918;28;20043;-74
2023/03/04 02:31:47;;;;;;;11.25;5.72;;;;;;;;;;5109349;28;20514;-75
2023/03/04 02:34:24;;;;;;;12.93;5.63;;;;;;;;;;5110588;28;20048;-72
2023/03/04 02:36:56;;;;;;;8.88;4.97;;;;;;;;;;5109228;28;20055;-72
2023/03/04 02:39:42;;;;;;;8.25;4.55;;;;;;;;;;5108433;28;20059;-73
2023/03/04 02:42:14;;;;;;;8.70;5.63;;;;;;;;;;5110958;28;20051;-73
2023/03/04 02:44:47;;;;;;;8.48;4.45;;;;;;;;;;5108850;28;20054;-76
2023/03/04 02:47:21;;;;;;;8.95;5.13;;;;;;;;;;5108788;28;20059;-74
2023/03/04 02:49:53;;;;;;;8.00;4.45;;;;;;;;;;5110583;28;20052;-75
2023/03/04 02:52:25;;;;;;;8.55;5.18;;;;;;;;;;5110747;28;20048;-73
2023/03/04 02:54:57;;;;;;;14.50;4.45;;;;;;;;;;5093353;28;20067;-75
2023/03/04 02:57:28;;;;;;;8.55;4.10;;;;;;;;;;5111302;28;20418;-74
2023/03/04 02:59:58;;;;;;;10.05;4.05;;;;;;;;;;5109900;28;20054;-75
2023/03/04 03:02:29;;;;;;;7.97;4.78;;;;;;;;;;5109808;28;20699;-73
2023/03/04 03:05:00;;;;;;;7.32;3.85;;;;;;;;;;5113396;28;20050;-73
2023/03/04 03:07:33;;;;;;;11.75;4.13;;;;;;;;;;5110478;28;20048;-73
2023/03/04 03:10:05;;;;;;;8.70;4.15;;;;;;;;;;5110503;28;20074;-75
2023/03/04 03:12:37;;;;;;;7.82;4.15;;;;;;;;;;5110831;28;20056;-75
2023/03/04 03:15:08;;;;;;;8.57;3.28;;;;;;;;;;5113451;28;20400;-74
2023/03/04 03:17:39;;;;;;;6.85;3.65;;;;;;;;;;5112855;28;20047;-72
2023/03/04 03:20:11;;;;;;;6.38;3.20;;;;;;;;;;5114516;28;20509;-74
2023/03/04 03:22:42;;;;;;;6.45;3.20;;;;;;;;;;5116283;28;20048;-74
2023/03/04 03:25:14;;;;;;;6.97;3.25;;;;;;;;;;5112539;28;20070;-75
2023/03/04 03:27:45;;;;;;;7.43;3.70;;;;;;;;;;5110618;28;20039;-72
2023/03/04 03:30:17;;;;;;;7.10;3.47;;;;;;;;;;5114019;28;20055;-72
2023/03/04 03:32:47;;;;;;;7.38;3.08;;;;;;;;;;5114096;28;20051;-76
2023/03/04 03:35:17;;;;;;;7.60;3.60;;;;;;;;;;5117228;28;20383;-74
2023/03/04 03:37:48;;;;;;;13.77;3.65;;;;;;;;;;5115262;28;20047;-74
2023/03/04 03:40:18;;;;;;;9.23;3.30;;;;;;;;;;5115548;28;20051;-72
2023/03/04 03:42:50;;;;;;;6.35;3.70;;;;;;;;;;5114969;28;20054;-74
2023/03/04 03:45:20;;;;;;;5.80;3.03;;;;;;;;;;5115099;28;20047;-73
2023/03/04 03:47:50;;;;;;;12.20;3.13;;;;;;;;;;5116872;28;20042;-73
2023/03/04 03:50:21;;;;;;;7.07;3.08;;;;;;;;;;5115341;28;20220;-74
2023/03/04 03:52:52;;;;;;;6.28;3.13;;;;;;;;;;5115628;28;20078;-76
2023/03/04 03:55:22;;;;;;;8.40;3.38;;;;;;;;;;5115442;28;20047;-76
2023/03/04 03:57:52;;;;;;;6.85;3.10;;;;;;;;;;5113597;28;20122;-73
2023/03/04 04:00:23;;;;;;;9.05;2.75;;;;;;;;;;5112918;28;20043;-74
2023/03/04 04:02:59;;;;;;;6.72;2.58;;;;;;;;;;5113223;28;20051;-73
2023/03/04 04:05:29;;;;;;;6.47;2.72;;;;;;;;;;5115816;28;20043;-74
2023/03/04 04:07:59;;;;;;;11.88;3.30;;;;;;;;;;5114316;28;20040;-73
2023/03/04 04:10:29;;;;;;;5.72;2.53;;;;;;;;;;5116082;28;20044;-75
2023/03/04 04:12:59;;;;;;;9.57;3.20;;;;;;;;;;5113506;28;20044;-73
2023/03/04 04:15:29;;;;;;;10.73;2.78;;;;;;;;;;5115478;28;20054;-74
2023/03/04 04:18:00;;;;;;;10.88;3.10;;;;;;;;;;5116210;28;20063;-74
2023/03/04 04:20:30;;;;;;;10.73;2.92;;;;;;;;;;5114558;28;20059;-76
2023/03/04 04:23:01;;;;;;;8.70;3.03;;;;;;;;;;5115163;28;20055;-74
2023/03/04 04:25:31;;;;;;;8.82;3.28;;;;;;;;;;5114616;28;20043;-74
2023/03/04 04:28:03;;;;;;;11.48;3.65;;;;;;;;;;5112636;28;20040;-76
2023/03/04 04:30:34;;;;;;;12.30;3.53;;;;;;;;;;5111265;28;20044;-75
2023/03/04 04:33:04;;;;;;;8.98;3.20;;;;;;;;;;5113006;28;20059;-73
2023/03/04 04:35:37;;;;;;;10.02;3.75;;;;;;;;;;5112237;28;20417;-75
2023/03/04 04:38:09;;;;;;;12.70;3.40;;;;;;;;;;5112792;28;20051;-73
2023/03/04 04:40:39;;;;;;;11.77;3.42;;;;;;;;;;5115269;28;20048;-73
2023/03/04 04:43:10;;;;;;;10.15;3.00;;;;;;;;;;5114658;28;20055;-73
2023/03/04 04:45:41;;;;;;;11.93;3.53;;;;;;;;;;5113413;28;20046;-74
2023/03/04 04:48:13;;;;;;;8.05;3.28;;;;;;;;;;5112428;28;20066;-74
2023/03/04 04:50:43;;;;;;;6.80;3.10;;;;;;;;;;5111633;28;20051;-74
2023/03/04 04:53:13;;;;;;;8.77;3.40;;;;;;;;;;5110617;28;20450;-73
2023/03/04 04:55:43;;;;;;;11.27;3.92;;;;;;;;;;5111902;28;20047;-73
2023/03/04 04:58:14;;;;;;;8.18;4.07;;;;;;;;;;5111290;28;20044;-74
2023/03/04 05:00:45;;;;;;;8.30;4.45;;;;;;;;;;5110998;28;20047;-74
2023/03/04 05:03:15;;;;;;;12.30;4.07;;;;;;;;;;5110929;28;20047;-74
2023/03/04 05:05:49;;;;;;;7.82;3.40;;;;;;;;;;5111152;28;20051;-74
2023/03/04 05:08:20;;;;;;;6.05;3.83;;;;;;;;;;5110513;28;20047;-74
2023/03/04 05:10:51;;;;;;;7.13;3.80;;;;;;;;;;5110817;28;20787;-75
2023/03/04 05:13:22;;;;;;;13.02;4.22;;;;;;;;;;5110454;28;20043;-73
2023/03/04 05:15:54;;;;;;;16.40;4.10;;;;;;;;;;5111848;28;20044;-73
2023/03/04 05:18:26;;;;;;;7.95;4.18;;;;;;;;;;5095434;28;20044;-76
2023/03/04 05:21:00;;;;;;;7.47;4.10;;;;;;;;;;5113977;28;20437;-73
2023/03/04 05:23:33;;;;;;;13.30;4.07;;;;;;;;;;5114835;28;20052;-74
2023/03/04 05:26:05;;;;;;;8.52;4.40;;;;;;;;;;5115080;28;20055;-74
2023/03/04 05:28:36;;;;;;;14.18;3.85;;;;;;;;;;5112647;28;20481;-74
2023/03/04 05:31:08;;;;;;;8.98;3.90;;;;;;;;;;5112869;28;20593;-73
2023/03/04 05:33:38;;;;;;;11.30;3.38;;;;;;;;;;5114836;28;20055;-74
2023/03/04 05:36:08;;;;;;;17.88;4.18;;;;;;;;;;5116869;28;20046;-74
2023/03/04 05:38:38;;;;;;;8.85;3.33;;;;;;;;;;5115313;28;20054;-73
2023/03/04 05:41:08;;;;;;;10.48;4.70;;;;;;;;;;5113940;28;20051;-74
2023/03/04 05:43:41;;;;;;;12.20;3.85;;;;;;;;;;5116561;28;20044;-73
2023/03/04 05:46:14;;;;;;;12.73;3.85;;;;;;;;;;5118751;28;20051;-77
2023/03/04 05:48:45;;;;;;;9.93;3.50;;;;;;;;;;5115104;28;20048;-74
2023/03/04 05:51:14;;;;;;;10.98;3.67;;;;;;;;;;5110956;28;20054;-74
2023/03/04 05:53:46;;;;;;;8.45;3.80;;;;;;;;;;5114825;28;20052;-73
2023/03/04 05:56:18;;;;;;;8.65;4.03;;;;;;;;;;5114628;28;20040;-74
2023/03/04 05:58:49;;;;;;;6.00;3.33;;;;;;;;;;5113555;28;20047;-74
2023/03/04 06:01:19;;;;;;;14.35;3.95;;;;;;;;;;5117235;28;20055;-72
2023/03/04 06:03:50;;;;;;;20.27;3.80;;;;;;;;;;5117785;28;20046;-72
2023/03/04 06:06:22;;;;;;;18.80;4.00;;;;;;;;;;5114007;28;20434;-73
2023/03/04 06:08:53;;;;;;;11.73;3.45;;;;;;;;;;5117871;28;20043;-73
2023/03/04 06:11:22;;;;;;;10.10;3.15;;;;;;;;;;5110500;28;20415;-74
2023/03/04 06:13:54;;;;;;;8.85;3.53;;;;;;;;;;5111275;28;20039;-73
2023/03/04 06:16:25;;;;;;;7.18;3.20;;;;;;;;;;5116930;28;20044;-72
2023/03/04 06:18:55;;;;;;;16.25;3.22;;;;;;;;;;5113394;28;20050;-76
2023/03/04 06:21:25;;;;;;;9.27;3.22;;;;;;;;;;5114602;28;20047;-73
2023/03/04 06:23:55;;;;;;;10.80;3.17;;;;;;;;;;5114661;28;20051;-75
2023/03/04 06:26:26;;;;;;;11.13;3.33;;;;;;;;;;5115536;28;20052;-73
2023/03/04 06:28:57;;;;;;;7.05;3.33;;;;;;;;;;5115822;28;20040;-74
2023/03/04 06:31:27;;;;;;;8.70;3.22;;;;;;;;;;5117002;28;20066;-74
2023/03/04 06:33:57;;;;;;;6.30;3.03;;;;;;;;;;5116040;28;20055;-74
2023/03/04 06:36:27;;;;;;;4.85;2.92;;;;;;;;;;5116160;28;20379;-75
2023/03/04 06:38:58;;;;;;;9.93;3.55;;;;;;;;;;5115931;28;20044;-73
2023/03/04 06:41:29;;;;;;;18.45;3.13;;;;;;;;;;5115200;28;20056;-73
2023/03/04 06:44:01;;;;;;;12.07;2.83;;;;;;;;;;5114578;28;20392;-76
2023/03/04 06:46:33;;;;;;;8.45;3.35;;;;;;;;;;5116198;28;20048;-73
2023/03/04 06:49:04;;;;;;;8.02;3.15;;;;;;;;;;5115616;28;20059;-73
2023/03/04 06:51:36;;;;;;;6.03;3.05;;;;;;;;;;5115478;28;20059;-73
2023/03/04 06:54:07;;;;;;;8.18;2.95;;;;;;;;;;5117671;28;20550;-74
2023/03/04 06:56:37;;;;;;;9.00;3.42;;;;;;;;;;5115366;28;20059;-75
2023/03/04 06:59:09;;;;;;;8.85;3.30;;;;;;;;;;5115518;28;20048;-73
2023/03/04 07:01:41;;;;;;;10.20;3.40;;;;;;;;;;5122221;28;20046;-74
2023/03/04 07:04:13;;;;;;;10.85;3.40;;;;;;;;;;5121466;28;20073;-73
2023/03/04 07:06:44;;;;;;;10.27;3.28;;;;;;;;;;5121337;28;20494;-74
2023/03/04 07:09:13;;;;;;;10.48;3.40;;;;;;;;;;5117960;28;20043;-74
2023/03/04 07:11:44;;;;;;;14.88;3.60;;;;;;;;;;5116310;28;20058;-72
2023/03/04 07:14:14;;;;;;;10.27;3.10;;;;;;;;;;5110568;28;20055;-73
2023/03/04 07:16:46;;;;;;;8.15;3.22;;;;;;;;;;5110694;28;20066;-73
2023/03/04 07:19:16;;;;;;;8.75;3.00;;;;;;;;;;5113097;28;20047;-73
2023/03/04 07:21:46;;;;;;;15.65;3.40;;;;;;;;;;5115048;28;20078;-73
2023/03/04 07:24:18;;;;;;;11.60;3.20;;;;;;;;;;5115846;28;20043;-74
2023/03/04 07:26:49;;;;;;;24.25;3.83;;;;;;;;;;5110427;28;20052;-75
2023/03/04 07:29:19;;;;;;;34.33;4.90;;;;;;;;;;5110737;28;20043;-73
2023/03/04 07:31:51;;;;;;;34.95;3.90;;;;;;;;;;5110247;28;20056;-74
2023/03/04 07:34:21;;;;;;;31.52;4.30;;;;;;;;;;5109732;28;20051;-74
2023/03/04 07:36:52;;;;;;;30.75;4.78;;;;;;;;;;5109946;28;20067;-73
2023/03/04 07:39:23;;;;;;;15.88;3.90;;;;;;;;;;5109216;28;20048;-71
2023/03/04 07:41:53;;;;;;;12.48;3.55;;;;;;;;;;5110765;28;20054;-73
2023/03/04 07:44:24;;;;;;;7.80;4.35;;;;;;;;;;5110164;28;20052;-76
2023/03/04 07:46:54;;;;;;;8.27;3.22;;;;;;;;;;5109529;28;20050;-72
2023/03/04 07:49:25;;;;;;;9.73;3.42;;;;;;;;;;5108624;28;20056;-75
2023/03/04 07:51:56;;;;;;;11.45;3.85;;;;;;;;;;5109108;28;20051;-72
2023/03/04 07:54:27;;;;;;;5.65;3.10;;;;;;;;;;5108512;28;20047;-74
2023/03/04 07:56:57;;;;;;;6.55;3.13;;;;;;;;;;5109882;28;20044;-73
2023/03/04 07:59:27;;;;;;;3.05;2.55;;;;;;;;;;5110015;28;20425;-72
2023/03/04 08:01:58;;;;;;;4.22;2.55;;;;;;;;;;5110991;28;20399;-74
2023/03/04 08:04:30;;;;;;;7.78;2.70;;;;;;;;;;5110054;28;20043;-72
2023/03/04 08:07:00;;;;;;;9.50;2.65;;;;;;;;;;5109480;28;20379;-75
2023/03/04 08:09:31;;;;;;;7.30;2.60;;;;;;;;;;5109177;28;20054;-73
2023/03/04 08:12:02;;;;;;;2.55;2.33;;;;;;;;;;5109741;28;20046;-75
2023/03/04 08:14:32;;;;;;;10.18;2.50;;;;;;;;;;5113791;28;20040;-73
2023/03/04 08:17:02;;;;;;;12.80;2.75;;;;;;;;;;5112562;28;20048;-72
2023/03/04 08:19:33;;;;;;;14.15;3.22;;;;;;;;;;5111047;28;20055;-73
2023/03/04 08:22:04;;;;;;;6.03;2.17;;;;;;;;;;5109705;28;20352;-75
2023/03/04 08:24:34;;;;;;;6.68;2.75;;;;;;;;;;5109364;28;20097;-73
2023/03/04 08:27:04;;;;;;;9.68;2.67;;;;;;;;;;5109324;28;20059;-76
2023/03/04 08:29:34;;;;;;;11.95;2.17;;;;;;;;;;5109269;28;20051;-72
2023/03/04 08:32:05;;;;;;;9.30;2.17;;;;;;;;;;5109488;28;20415;-73
2023/03/04 08:34:39;;;;;;;5.60;1.98;;;;;;;;;;5109479;28;20039;-73
2023/03/04 08:37:10;;;;;;;4.82;1.95;;;;;;;;;;5109010;28;20043;-73
2023/03/04 08:39:39;;;;;;;2.83;2.05;;;;;;;;;;5110040;28;20039;-75
2023/03/04 08:42:11;;;;;;;9.30;2.08;;;;;;;;;;5109125;28;20070;-75
2023/03/04 08:44:42;;;;;;;7.97;1.83;;;;;;;;;;5107831;28;20044;-76
2023/03/04 08:47:12;;;;;;;6.00;1.70;;;;;;;;;;5109631;28;20054;-75
2023/03/04 08:49:42;;;;;;;4.47;1.70;;;;;;;;;;5110057;28;20059;-76
2023/03/04 08:52:13;;;;;;;4.38;1.70;;;;;;;;;;5110226;28;20062;-74
2023/03/04 08:54:43;;;;;;;3.92;1.48;;;;;;;;;;5106851;28;20469;-74
2023/03/04 08:57:15;;;;;;;9.23;1.48;;;;;;;;;;5108358;28;20051;-71
2023/03/04 08:59:45;;;;;;;11.02;1.60;;;;;;;;;;5108731;28;20048;-75
2023/03/04 09:02:15;;;;;;;8.40;1.45;;;;;;;;;;5107819;28;20069;-76
2023/03/04 09:04:46;;;;;;;7.15;1.65;;;;;;;;;;5110610;28;20056;-73
2023/03/04 09:07:17;;;;;;;6.45;1.88;;;;;;;;;;5110143;28;20043;-74
2023/03/04 09:09:48;;;;;;;5.22;1.52;;;;;;;;;;5109546;28;20047;-72
2023/03/04 09:12:18;;;;;;;5.53;1.52;;;;;;;;;;5109617;28;20494;-73
2023/03/04 09:14:48;;;;;;;7.05;2.22;;;;;;;;;;5111165;28;20048;-76
2023/03/04 09:17:36;;;;;;;5.50;1.52;;;;;;;;;;5109202;28;20043;-73
2023/03/04 09:20:09;;;;;;;8.93;1.70;;;;;;;;;;5109696;28;20043;-74
2023/03/04 09:22:41;;;;;;;8.02;1.48;;;;;;;;;;5109083;28;20524;-74
2023/03/04 09:25:14;;;;;;;5.32;1.90;;;;;;;;;;5107710;28;20043;-73
2023/03/04 09:27:45;;;;;;;8.07;1.83;;;;;;;;;;5107402;28;20046;-76
2023/03/04 09:30:16;;;;;;;3.25;1.42;;;;;;;;;;5106084;28;20067;-76
2023/03/04 09:32:46;;;;;;;7.22;1.80;;;;;;;;;;5107551;28;20051;-73
2023/03/04 09:35:17;;;;;;;9.02;1.52;;;;;;;;;;5108453;28;20036;-75
2023/03/04 09:37:48;;;;;;;4.47;1.60;;;;;;;;;;5107697;28;20055;-74
2023/03/04 09:40:24;;;;;;;5.60;1.77;;;;;;;;;;5107202;28;20055;-74
2023/03/04 09:43:02;;;;;;;4.05;1.75;;;;;;;;;;5107755;28;20043;-75
2023/03/04 09:45:49;;;;;;;3.65;1.58;;;;;;;;;;5108826;28;20409;-74
2023/03/04 09:48:24;;;;;;;5.00;2.08;;;;;;;;;;5107171;28;20055;-75
2023/03/04 09:51:02;;;;;;;12.35;1.88;;;;;;;;;;5106933;28;20047;-74
2023/03/04 09:54:00;;;;;;;11.32;2.17;;;;;;;;;;5106796;28;20051;-74
2023/03/04 09:56:35;;;;;;;7.43;2.10;;;;;;;;;;5107233;28;20040;-74
2023/03/04 09:59:44;;;;;;;3.53;2.00;;;;;;;;;;5107083;28;20421;-75
2023/03/04 10:02:43;;;;;;;8.02;2.13;;;;;;;;;;5107615;28;20047;-79
2023/03/04 10:05:19;;;;;;;8.40;2.05;;;;;;;;;;5106262;28;20529;-75
2023/03/04 10:07:59;;;;;;;10.52;2.20;;;;;;;;;;5107139;28;20048;-75
2023/03/04 10:10:38;;;;;;;9.30;2.15;;;;;;;;;;5106789;28;20065;-75
2023/03/04 10:13:16;;;;;;;5.88;2.22;;;;;;;;;;5107061;28;20055;-75
2023/03/04 10:15:49;;;;;;;6.38;2.55;;;;;;;;;;5106136;28;20055;-74
2023/03/04 10:18:40;;;;;;;4.55;2.20;;;;;;;;;;5106925;28;20507;-75
2023/03/04 10:21:23;;;;;;;6.95;2.42;;;;;;;;;;5107229;28;20429;-74
2023/03/04 10:23:54;;;;;;;4.82;2.60;;;;;;;;;;5106398;28;20047;-75
2023/03/04 10:26:32;;;;;;;8.30;2.60;;;;;;;;;;5107954;28;20043;-75
2023/03/04 10:29:05;;;;;;;5.10;2.25;;;;;;;;;;5116040;27;20042;-75
2023/03/04 10:31:37;;;;;;;5.20;2.65;;;;;;;;;;5125035;27;20426;-75
2023/03/04 10:34:13;;;;;;;7.47;2.90;;;;;;;;;;5090314;28;20052;-77
2023/03/04 10:36:55;;;;;;;3.97;2.47;;;;;;;;;;5090370;28;20040;-75
2023/03/04 10:39:32;;;;;;;4.07;2.20;;;;;;;;;;5090212;28;20051;-75
2023/03/04 10:42:15;;;;;;;3.70;2.13;;;;;;;;;;5089755;28;20040;-74
2023/03/04 10:44:57;;;;;;;8.18;2.58;;;;;;;;;;5089850;28;20052;-75
2023/03/04 10:47:30;;;;;;;12.10;3.33;;;;;;;;;;5090175;28;20071;-75
2023/03/04 10:50:03;;;;;;;12.02;2.90;;;;;;;;;;5091227;28;20060;-75
2023/03/04 10:52:48;;;;;;;3.97;2.92;;;;;;;;;;5090869;28;20048;-76
2023/03/04 10:55:25;;;;;;;5.95;2.60;;;;;;;;;;5092370;28;20487;-74
2023/03/04 10:58:06;;;;;;;4.82;1.90;;;;;;;;;;5092646;28;20507;-73
2023/03/04 11:00:36;;;;;;;4.07;1.85;;;;;;;;;;5090177;28;20052;-73
2023/03/04 11:03:34;;;;;;;7.93;1.90;;;;;;;;;;5090515;28;20040;-77
2023/03/04 11:06:12;;;;;;;6.35;2.10;;;;;;;;;;5091232;28;20064;-73
2023/03/04 11:08:43;;;;;;;4.47;1.92;;;;;;;;;;5092247;28;20052;-75
2023/03/04 11:11:26;;;;;;;5.55;1.95;;;;;;;;;;5092541;28;20133;-75
2023/03/04 11:14:02;;;;;;;5.65;1.73;;;;;;;;;;5091999;28;20056;-78
2023/03/04 11:16:33;;;;;;;4.22;2.33;;;;;;;;;;5094611;28;20052;-73
2023/03/04 11:19:15;;;;;;;6.47;2.28;;;;;;;;;;5098148;28;20075;-75
2023/03/04 11:21:47;;;;;;;7.05;2.10;;;;;;;;;;5098467;28;20048;-73
2023/03/04 11:24:29;;;;;;;2.63;1.80;;;;;;;;;;5097116;28;20040;-77
2023/03/04 11:27:20;;;;;;;3.15;2.00;;;;;;;;;;5099078;28;20047;-75
2023/03/04 11:30:16;;;;;;;4.97;2.42;;;;;;;;;;5095511;28;20051;-72
2023/03/04 11:32:52;;;;;;;2.92;2.03;;;;;;;;;;5070479;28;20060;-73
2023/03/04 11:35:33;;;;;;;5.60;2.47;;;;;;;;;;5095345;28;20051;-73
2023/03/04 11:38:39;;;;;;;7.45;2.25;;;;;;;;;;5092519;28;20059;-73
2023/03/04 11:41:36;;;;;;;7.82;2.03;;;;;;;;;;5093920;28;20048;-75
2023/03/04 11:44:07;;;;;;;5.13;2.17;;;;;;;;;;5095790;28;20055;-74
2023/03/04 11:46:49;;;;;;;2.97;1.85;;;;;;;;;;5095156;28;20506;-74
2023/03/04 11:49:31;;;;;;;7.43;1.95;;;;;;;;;;5096194;28;20056;-73
2023/03/04 11:52:10;;;;;;;6.15;2.00;;;;;;;;;;5095363;28;20039;-74
2023/03/04 11:54:59;;;;;;;6.97;1.73;;;;;;;;;;5093315;28;20051;-74
2023/03/04 11:57:31;;;;;;;4.45;1.75;;;;;;;;;;5097428;28;20040;-76
2023/03/04 12:00:24;;;;;;;5.68;1.65;;;;;;;;;;5091833;28;20043;-75
2023/03/04 12:03:15;;;;;;;6.53;1.80;;;;;;;;;;5089313;28;20590;-75
2023/03/04 12:06:20;;;;;;;4.93;2.03;;;;;;;;;;5089561;28;20032;-72
2023/03/04 12:09:13;;;;;;;7.25;2.33;;;;;;;;;;5066255;28;20048;-74
2023/03/04 12:12:21;;;;;;;5.53;1.63;;;;;;;;;;5078337;28;20071;-73
2023/03/04 12:15:10;;;;;;;4.10;1.65;;;;;;;;;;5089000;28;20055;-72
2023/03/04 12:17:58;;;;;;;4.25;1.75;;;;;;;;;;5086194;28;20048;-75
2023/03/04 12:20:39;;;;;;;;;;;;;;;;;;5089941;28;20036;-74
2023/03/04 12:23:22;;;;;;;2.28;1.52;;;;;;;;;;5088661;28;19924;-75
2023/03/04 12:26:19;;;;;;;4.05;1.90;;;;;;;;;;5088394;28;20051;-74
2023/03/04 12:28:58;;;;;;;2.50;1.63;;;;;;;;;;5088266;28;20055;-74
2023/03/04 12:32:17;;;;;;;4.22;1.63;;;;;;;;;;5088144;28;20043;-73
2023/03/04 12:35:23;;;;;;;2.85;2.03;;;;;;;;;;5045098;28;20063;-74
2023/03/04 12:38:15;;;;;;;4.00;2.00;;;;;;;;;;5025221;28;20536;-73
2023/03/04 12:41:04;;;;;;;4.43;1.67;;;;;;;;;;5087276;28;20408;-75
2023/03/04 12:43:52;;;;;;;2.95;2.05;;;;;;;;;;5088168;28;20051;-74
2023/03/04 12:46:22;;;;;;;;;;;;;;;;;;5087288;28;20497;-73
2023/03/04 12:49:20;;;;;;;8.38;2.47;;;;;;;;;;5087783;28;19994;-76
2023/03/04 12:51:56;;;;;;;8.48;1.90;;;;;;;;;;5087918;28;20071;-74
2023/03/04 12:54:47;;;;;;;2.33;1.30;;;;;;;;;;5087516;28;20047;-76
2023/03/04 12:57:30;;;;;;;3.25;1.92;;;;;;;;;;5088043;28;20047;-73
2023/03/04 13:00:28;;;;;;;16.10;3.65;;;;;;;;;;5087044;28;20048;-75
2023/03/04 13:03:38;;;;;;;4.82;1.73;;;;;;;;;;5087950;28;20051;-75
2023/03/04 13:06:20;;;;;;;25.23;5.40;;;;;;;;;;5084235;28;20541;-75
2023/03/04 13:09:01;;;;;;;14.07;2.47;;;;;;;;;;5087251;28;20062;-76
2023/03/04 13:11:39;;;;;;;10.05;3.10;;;;;;;;;;5087218;28;20507;-74
2023/03/04 13:14:16;;;;;;;24.70;4.20;;;;;;;;;;5086959;28;20051;-72
2023/03/04 13:16:52;;;;;;;17.10;8.05;;;;;;;;;;5087025;28;20494;-73
2023/03/04 13:19:41;;;;;;;1.63;1.10;;;;;;;;;;5086748;28;20055;-74
2023/03/04 13:22:39;;;;;;;4.53;1.10;;;;;;;;;;5086050;28;20051;-76
2023/03/04 13:25:29;;;;;;;;;;;;;;;;;;5095140;28;20031;-78
2023/03/04 13:28:01;;;;;;;4.70;1.20;;;;;;;;;;5107095;28;20400;-72
2023/03/04 13:30:39;;;;;;;10.13;2.13;;;;;;;;;;5107079;28;20051;-74
2023/03/04 13:33:14;;;;;;;2.55;0.98;;;;;;;;;;5107053;28;20367;-74
2023/03/04 13:36:02;;;;;;;;;;;;;;;;;;5106846;28;20047;-72
2023/03/04 13:38:37;;;;;;;8.93;1.50;;;;;;;;;;5103271;28;19924;-76
2023/03/04 13:41:27;;;;;;;1.95;1.00;;;;;;;;;;5102547;28;20051;-76
2023/03/04 13:44:22;;;;;;;2.53;0.93;;;;;;;;;;5104585;28;20070;-73
2023/03/04 13:46:53;;;;;;;3.33;1.30;;;;;;;;;;5106190;28;20047;-73
2023/03/04 13:49:24;;;;;;;4.20;0.85;;;;;;;;;;5105251;28;20047;-74
2023/03/04 13:51:55;;;;;;;3.38;0.82;;;;;;;;;;5107181;28;20058;-74
2023/03/04 13:54:33;;;;;;;3.90;0.90;;;;;;;;;;5107082;28;20533;-73
2023/03/04 13:57:36;;;;;;;4.30;0.82;;;;;;;;;;5107568;28;20087;-74
2023/03/04 14:00:12;;;;;;;2.58;0.82;;;;;;;;;;5064317;28;20082;-73
2023/03/04 14:02:43;;;;;;;1.42;0.80;;;;;;;;;;5105981;28;20039;-71
2023/03/04 14:05:14;;;;;;;3.13;0.88;;;;;;;;;;5107380;28;20047;-73
2023/03/04 14:07:44;;;;;;;3.47;0.80;;;;;;;;;;5106944;28;20394;-73
2023/03/04 14:10:14;;;;;;;8.30;1.05;;;;;;;;;;5107430;28;20031;-72
2023/03/04 14:12:48;;;;;;;3.95;0.75;;;;;;;;;;5106973;28;20043;-73
2023/03/04 14:15:32;;;;;;;4.63;0.70;;;;;;;;;;5107216;28;20062;-73
2023/03/04 14:18:05;;;;;;;2.40;0.73;;;;;;;;;;5106718;28;20044;-73
2023/03/04 14:20:37;;;;;;;5.43;1.42;;;;;;;;;;5106888;28;20055;-77
2023/03/04 14:23:28;;;;;;;3.58;0.82;;;;;;;;;;5106980;28;20062;-75
2023/03/04 14:26:15;;;;;;;19.33;3.95;;;;;;;;;;5107112;28;20525;-73
2023/03/04 14:28:56;;;;;;;1.92;0.73;;;;;;;;;;5107240;28;20044;-73
2023/03/04 14:31:29;;;;;;;19.10;5.18;;;;;;;;;;5107155;28;20055;-72
2023/03/04 14:34:03;;;;;;;4.60;1.15;;;;;;;;;;5106986;28;20075;-74
2023/03/04 14:36:36;;;;;;;3.83;1.00;;;;;;;;;;5106628;28;20063;-74
2023/03/04 14:39:14;;;;;;;1.77;0.60;;;;;;;;;;5107139;28;20047;-74
2023/03/04 14:41:48;;;;;;;0.75;0.50;;;;;;;;;;5107800;28;20044;-73
2023/03/04 14:44:25;;;;;;;1.00;0.60;;;;;;;;;;5105672;28;20031;-74
2023/03/04 14:47:01;;;;;;;15.00;2.95;;;;;;;;;;5106520;28;20047;-72
2023/03/04 14:49:38;;;;;;;4.55;1.35;;;;;;;;;;5107629;28;20078;-75
2023/03/04 14:52:27;;;;;;;8.27;1.58;;;;;;;;;;5107719;28;20524;-74
2023/03/04 14:55:21;;;;;;;2.38;0.65;;;;;;;;;;5106730;28;20054;-77
2023/03/04 14:58:10;;;;;;;1.83;0.63;;;;;;;;;;5106855;28;20055;-77
2023/03/04 15:00:42;;;;;;;2.03;0.60;;;;;;;;;;5106383;28;20051;-74
2023/03/04 15:03:31;;;;;;;3.45;0.70;;;;;;;;;;5106578;28;20035;-76
2023/03/04 15:06:25;;;;;;;2.38;0.75;;;;;;;;;;5104932;28;20054;-75
2023/03/04 15:09:25;;;;;;;1.77;0.60;;;;;;;;;;5105246;28;20071;-75
2023/03/04 15:12:07;;;;;;;2.97;0.60;;;;;;;;;;5106469;28;20071;-76
2023/03/04 15:14:46;;;;;;;5.65;0.77;;;;;;;;;;5106038;28;20051;-75
2023/03/04 15:17:25;;;;;;;2.45;0.75;;;;;;;;;;5110184;28;20066;-76
2023/03/04 15:20:07;;;;;;;2.72;0.77;;;;;;;;;;5110133;28;20059;-74
2023/03/04 15:22:48;;;;;;;1.08;0.60;;;;;;;;;;5110030;28;20853;-76
2023/03/04 15:25:19;;;;;;;1.88;0.60;;;;;;;;;;5109601;28;20510;-76
2023/03/04 15:27:52;;;;;;;1.80;0.68;;;;;;;;;;5108765;28;20043;-74